Decoded Metar for YCFS ( in ) (IATA:) | Meteo·Mobile Aviation Weather
aviador You're here:

YCFS Decoded Metar

in
Report Time2019-10-19 23:00:00
UTC Time2019-10-19 23:16:14
Flight Rules vfr VFR
Wind190° at 20 kt
W.Decomp.*RWY 21: 18.8 kt HW 6.8 kt LCW
RWY 10: 20.0 kt RCW
Visibility9999 m
Phenomena:N/A
Clouds:Scattered 038 Hf
Scattered 044 Hf
Overcast 052 Hf
Expected CloudBase > 3,200 ft AGL from Temp-Dew spread
Ceiling5,200 ft
Temp21°C
Dew Point13°C (60% RH)
AAT14.7°C
QNH1021 hPa
Raw Report
METAR YCFS 192300Z AUTO 19020KT 9999 // SCT038 SCT044 OVC052 21/13 Q1021=

Extra information for YCFS:More info

Social comments